This is the latest recevied weather packets stored in our database for station/object EB1TR-13. If no packets are shown the sender has not sent any weather packets the latest 10 day(s).
| Time | Temp. | Humidity | Pressure | Rain* | Wind** | Luminosity | Snow |
|---|---|---|---|---|---|---|---|
| 1787392687 | 22.78° C | 69% | 1015 hPa | 0 mm | - | 0 W/m² | - |
| 1787391787 | 22.22° C | 69% | 1015 hPa | 0 mm | - | 0 W/m² | - |
| 1787390887 | 21.67° C | 71% | 1015 hPa | 0 mm | - | 0 W/m² | - |
| 1787389987 | 21.11° C | 72% | 1016 hPa | 0 mm | - | 0 W/m² | - |
| 1787389088 | 21.11° C | 73% | 1015 hPa | 0 mm | - | 0 W/m² | - |
| 1787388187 | 21.11° C | 73% | 1016 hPa | 0 mm | - | 0 W/m² | - |
| 1787387287 | 20.56° C | 74% | 1016 hPa | 0 mm | - | 0 W/m² | - |
| 1787386387 | 20.56° C | 74% | 1016 hPa | 0 mm | - | 0 W/m² | - |
| 1787385487 | 20° C | 76% | 1016 hPa | 0 mm | - | 0 W/m² | - |
| 1787384587 | 17.22° C | 89% | 1016 hPa | 0 mm | - | 0 W/m² | - |
| 1787383687 | 16.67° C | 92% | 1016 hPa | 0 mm | - | 0 W/m² | - |
| 1787382787 | 16.11° C | 93% | 1016 hPa | 0 mm | - | 0 W/m² | - |
| 1787381887 | 16.67° C | 89% | 1016 hPa | 0 mm | - | 0 W/m² | - |
| 1787380987 | 15.56° C | 92% | 1016 hPa | 0 mm | - | 0 W/m² | - |
| 1787380087 | 15.56° C | 91% | 1016 hPa | 0 mm | - | 0 W/m² | - |
| 1787379187 | 15.56° C | 90% | 1016 hPa | 0 mm | - | 0 W/m² | - |
| 1787378287 | 15.56° C | 90% | 1016 hPa | 0 mm | - | 0 W/m² | - |
| 1787377387 | 16.11° C | 89% | 1016 hPa | 0 mm | - | 0 W/m² | - |
| 1787376487 | 16.11° C | 88% | 1016 hPa | 0 mm | - | 0 W/m² | - |
| 1787375587 | 16.67° C | 88% | 1016 hPa | 0 mm | - | 0 W/m² | - |
| 1787374687 | 16.67° C | 86% | 1016 hPa | 0 mm | - | 0 W/m² | - |
| 1787373787 | 17.22° C | 86% | 1016 hPa | 0 mm | - | 0 W/m² | - |
| 1787372887 | 17.22° C | 83% | 1016 hPa | 0 mm | - | 0 W/m² | - |
| 1787371987 | 17.22° C | 85% | 1016 hPa | 0 mm | - | 0 W/m² | - |
| 1787371087 | 17.22° C | 79% | 1016 hPa | 0 mm | - | 0 W/m² | - |
* Rain latest hour (hover to see other rain measurements)
** Current wind speed in m/s (hover to see current wind gust speed)